Terminal Aerodrome Forecast
Issued by NWS Detroit/Pontiac, MI

Home | Current Version | Previous Version | Text Only | Print | Product List | Glossary On
Versions: 1 2 3 4 5 6 7 8 9 10 11 12 13 14 15 16
250
FTUS43 KDTX 201726
TAFFNT
TAF
KFNT 201726Z 2018/2118 22010KT P6SM SCT250
     FM202300 19005KT P6SM SCT060 SCT250
     FM210900 21004KT 6SM BR SCT150
     FM211400 22008KT P6SM SCT070 BKN100=

USA.gov is the U.S. government's official web portal to all federal, state and local government web resources and services.